Nearby METAR Reports

 

EGWC - Cosford Raf, United Kingdom
Distance from station: SSW 22km
Updated: 20/11/2019 13:50
Mostly cloudy
Mostly cloudy
 Wind from SSE
Wind: SSE 12 mph , 19 km/h
Temperature: 7°C
Wind Chill: 4°C
Dew Point: 3°C
Humidity: 76%
Barometer: 1010 hPa
Clouds: Mostly cloudy
Visibility: 6 miles , 10 km
Cloud details: Mostly cloudy 823 m
2019/11/20 13:50 EGWC 201350Z 15010KT 9999 BKN027 07/03 Q1010 RMK BLU
EGOS - Shawbury Raf, United Kingdom
Distance from station: W 37km
Updated: 20/11/2019 14:20
Mostly cloudy
Mostly cloudy
 Wind from SE
Wind: SE 20 mph , 31 km/h
Temperature: 7°C
Wind Chill: 3°C
Dew Point: 1°C
Humidity: 66%
Barometer: 1008 hPa
Clouds: Mostly cloudy
Visibility: 6 miles , 10 km
Cloud details: Few Clouds 762 m
Mostly cloudy 914 m
Mostly cloudy 6096 m
2019/11/20 14:20 EGOS 201420Z 14017KT 9999 FEW025 BKN030 BKN200 07/01 Q1008 NOSIG RMK BLU BLU
 
EGBB - Birmingham Airpo, United Kingdom
Distance from station: SE 44km
Updated: 20/11/2019 14:20
Partly cloudy
Partly cloudy
 Wind from SE
Wind: SE 13 mph , 20 km/h
Temperature: 6°C
Wind Chill: 2°C
Dew Point: 2°C
Humidity: 76%
Barometer: 1009 hPa
Clouds: Partly cloudy
Visibility: 6 miles , 10 km
Cloud details: Partly cloudy 884 m
2019/11/20 14:20 EGBB 201420Z 14011KT 9999 SCT029 06/02 Q1009
EGNX - East Midlands, United Kingdom
Distance from station: E 54km
Updated: 20/11/2019 14:20
Clear
Clear
 Wind from ESE
Wind: ESE 12 mph , 19 km/h
Temperature: 6°C
Wind Chill: 3°C
Dew Point: 2°C
Humidity: 76%
Barometer: 1010 hPa
Summary: Clear
Visibility: greater than 7 miles , 10 km
2019/11/20 14:20 EGNX 201420Z 11010KT CAVOK 06/02 Q1010
 
EGCC - Manchester Intl, United Kingdom
Distance from station: N 63km
Updated: 20/11/2019 14:20
Mostly cloudy
Mostly cloudy
 Wind from SE
Wind: SE 8 mph , 13 km/h
Temperature: 7°C
Wind Chill: 5°C
Dew Point: 1°C
Humidity: 66%
Barometer: 1009 hPa
Clouds: Mostly cloudy
Visibility: 6 miles , 10 km
Cloud details: Mostly cloudy 853 m
2019/11/20 14:20 EGCC 201420Z AUTO 14007KT 070V210 9999 BKN028 07/01 Q1009
EGBE - Coventry Airport, United Kingdom
Distance from station: SE 65km
Updated: 18/07/2017 14:50
NOT Current
Clear
Clear
 Wind from E
Wind: E 16 mph , 26 km/h
Temperature: 27°C
Heat Index: 27°C
Dew Point: 14°C
Humidity: 45%
Barometer: 1015 hPa
Summary: Clear
Visibility: greater than 7 miles , 10 km
2017/07/18 13:50 EGBE 181350Z 10014KT 060V120 CAVOK 27/14 Q1015
 
EGNR - Hawarden (aut), United Kingdom
Distance from station: NW 70km
Updated: 20/11/2019 14:20
Mostly cloudy
Mostly cloudy
 Wind from SE
Wind: SE 17 mph , 28 km/h, Gust: 29 mph , 46 km/h
Temperature: 7°C
Wind Chill: 3°C
Dew Point: 2°C
Humidity: 71%
Barometer: 1008 hPa
Clouds: Mostly cloudy
Visibility: 6 miles , 10 km
Cloud details: Few Clouds 549 m
Mostly cloudy 792 m
2019/11/20 14:20 EGNR 201420Z 14015G25KT 9999 FEW018 BKN026 07/02 Q1008
EGGP - Liverpool Airpor, United Kingdom
Distance from station: NW 76km
Updated: 20/11/2019 14:20
Partly cloudy
Partly cloudy
 Wind from SE
Wind: SE 15 mph , 24 km/h
Temperature: 7°C
Wind Chill: 3°C
Dew Point: 4°C
Humidity: 81%
Barometer: 1008 hPa
Clouds: Partly cloudy
Visibility: 6 miles , 10 km
Cloud details: Partly cloudy 823 m
2019/11/20 14:20 EGGP 201420Z 14013KT 9999 SCT027 07/04 Q1008